Time;durP1;ratioP1;P1;durP2;ratioP2;P2;SDS_P1;SDS_P2;PMS_P1;PMS_P2;Temp;Humidity;BMP_temperature;BMP_pressure;BME280_temperature;BME280_humidity;BME280_pressure;Samples;Min_cycle;Max_cycle;Signal;HPM_P1;HPM_P2
2024/02/17 00:00:20;;;;;;;;;;;;;;;;;;5025467;28;19905;-50
2024/02/17 00:02:46;;;;;;;;;;;;;;;;;;5025401;28;19940;-48
2024/02/17 00:05:12;;;;;;;;;;;;;;;;;;5001884;28;20103;-52
2024/02/17 00:07:39;;;;;;;;;;;;;;;;;;4987003;28;19988;-47
2024/02/17 00:10:05;;;;;;;;;;;;;;;;;;4986889;28;19902;-48
2024/02/17 00:12:31;;;;;;;;;;;;;;;;;;4986748;28;19902;-50
2024/02/17 00:14:57;;;;;;;;;;;;;;;;;;4986819;28;19937;-50
2024/02/17 00:17:23;;;;;;;;;;;;;;;;;;4987103;28;20216;-44
2024/02/17 00:19:50;;;;;;;;;;;;;;;;;;4986808;28;19902;-50
2024/02/17 00:22:16;;;;;;;;;;;;;;;;;;4985782;28;20189;-51
2024/02/17 00:24:42;;;;;;;;;;;;;;;;;;4997351;28;19913;-47
2024/02/17 00:27:09;;;;;;;;;;;;;;;;;;5006427;28;19902;-53
2024/02/17 00:29:35;;;;;;;;;;;;;;;;;;5006439;28;20247;-47
2024/02/17 00:32:01;;;;;;;;;;;;;;;;;;5005948;28;19909;-47
2024/02/17 00:34:28;;;;;;;;;;;;;;;;;;5006360;28;20125;-48
2024/02/17 00:36:54;;;;;;;;;;;;;;;;;;5020899;28;19905;-51
2024/02/17 00:39:20;;;;;;;;;;;;;;;;;;5006385;28;20098;-51
2024/02/17 00:41:46;;;;;;;;;;;;;;;;;;5005798;28;19902;-56
2024/02/17 00:44:12;;;;;;;;;;;;;;;;;;5006084;28;20068;-51
2024/02/17 00:46:39;;;;;;;;;;;;;;;;;;5005887;28;19909;-48
2024/02/17 00:49:05;;;;;;;;;;;;;;;;;;5006003;28;19909;-51
2024/02/17 00:51:31;;;;;;;;;;;;;;;;;;5020720;28;19901;-46
2024/02/17 00:53:57;;;;;;;;;;;;;;;;;;5020929;28;19910;-44
2024/02/17 00:56:24;;;;;;;;;;;;;;;;;;5005492;28;19972;-50
2024/02/17 00:58:50;;;;;;;;;;;;;;;;;;5005737;28;19952;-48
2024/02/17 01:01:16;;;;;;;;;;;;;;;;;;5005253;28;19909;-45
2024/02/17 01:03:42;;;;;;;;;;;;;;;;;;5008482;28;19914;-45
2024/02/17 01:06:09;;;;;;;;;;;;;;;;;;5025006;28;20093;-51
2024/02/17 01:08:35;;;;;;;;;;;;;;;;;;5007576;28;20132;-51
2024/02/17 01:11:02;;;;;;;;;;;;;;;;;;5025008;28;19936;-54
2024/02/17 01:13:28;;;;;;;;;;;;;;;;;;5007480;28;19909;-55
2024/02/17 01:15:54;;;;;;;;;;;;;;;;;;5022223;28;19925;-57
2024/02/17 01:18:21;;;;;;;;;;;;;;;;;;5014943;28;19909;-52
2024/02/17 01:20:47;;;;;;;;;;;;;;;;;;5015132;28;19977;-53
2024/02/17 01:23:13;;;;;;;;;;;;;;;;;;5013572;28;19910;-58
2024/02/17 01:25:39;;;;;;;;;;;;;;;;;;5014891;28;19901;-50
2024/02/17 01:28:05;;;;;;;;;;;;;;;;;;5015086;28;19945;-50
2024/02/17 01:30:31;;;;;;;;;;;;;;;;;;5013216;28;19908;-50
2024/02/17 01:32:58;;;;;;;;;;;;;;;;;;5014911;28;20171;-49
2024/02/17 01:35:24;;;;;;;;;;;;;;;;;;5014565;28;20036;-46
2024/02/17 01:37:51;;;;;;;;;;;;;;;;;;5013213;28;19964;-45
2024/02/17 01:40:17;;;;;;;;;;;;;;;;;;5015322;28;19901;-44
2024/02/17 01:42:43;;;;;;;;;;;;;;;;;;5019797;28;20086;-48
2024/02/17 01:45:10;;;;;;;;;;;;;;;;;;5013056;28;20252;-56
2024/02/17 01:47:37;;;;;;;;;;;;;;;;;;5015047;28;19909;-56
2024/02/17 01:50:03;;;;;;;;;;;;;;;;;;5014347;28;19902;-57
2024/02/17 01:52:29;;;;;;;;;;;;;;;;;;5013287;28;19908;-55
2024/02/17 01:54:55;;;;;;;;;;;;;;;;;;5013167;28;19905;-49
2024/02/17 01:57:21;;;;;;;;;;;;;;;;;;5014193;28;19908;-43
2024/02/17 01:59:47;;;;;;;;;;;;;;;;;;5014932;28;20186;-45
2024/02/17 02:02:14;;;;;;;;;;;;;;;;;;5013060;28;19902;-59
2024/02/17 02:04:40;;;;;;;;;;;;;;;;;;5014216;28;19920;-48
2024/02/17 02:07:06;;;;;;;;;;;;;;;;;;5014503;28;19908;-49
2024/02/17 02:09:32;;;;;;;;;;;;;;;;;;5013226;28;20146;-57
2024/02/17 02:11:59;;;;;;;;;;;;;;;;;;5017852;28;19901;-53
2024/02/17 02:14:25;;;;;;;;;;;;;;;;;;5016943;28;19909;-47
2024/02/17 02:16:52;;;;;;;;;;;;;;;;;;5014826;28;19901;-47
2024/02/17 02:19:18;;;;;;;;;;;;;;;;;;5013805;28;19976;-52
2024/02/17 02:21:44;;;;;;;;;;;;;;;;;;5013867;28;19902;-48
2024/02/17 02:24:10;;;;;;;;;;;;;;;;;;5015309;28;19996;-49
2024/02/17 02:26:36;;;;;;;;;;;;;;;;;;5012930;28;20163;-45
2024/02/17 02:29:03;;;;;;;;;;;;;;;;;;5014269;28;19917;-49
2024/02/17 02:31:29;;;;;;;;;;;;;;;;;;5014554;28;19902;-51
2024/02/17 02:33:55;;;;;;;;;;;;;;;;;;5013183;28;19913;-53
2024/02/17 02:36:22;;;;;;;;;;;;;;;;;;5014073;28;19905;-44
2024/02/17 02:38:48;;;;;;;;;;;;;;;;;;5014717;28;19917;-54
2024/02/17 02:41:14;;;;;;;;;;;;;;;;;;5013027;28;20105;-45
2024/02/17 02:43:40;;;;;;;;;;;;;;;;;;5014571;28;19941;-51
2024/02/17 02:46:06;;;;;;;;;;;;;;;;;;5022878;28;19975;-50
2024/02/17 02:48:33;;;;;;;;;;;;;;;;;;5019130;28;19988;-51
2024/02/17 02:50:59;;;;;;;;;;;;;;;;;;5016972;28;19902;-51
2024/02/17 02:53:25;;;;;;;;;;;;;;;;;;5017252;28;19913;-52
2024/02/17 02:55:51;;;;;;;;;;;;;;;;;;5018013;28;19920;-45
2024/02/17 02:58:17;;;;;;;;;;;;;;;;;;5016810;28;19910;-51
2024/02/17 03:00:43;;;;;;;;;;;;;;;;;;5017027;28;19908;-45
2024/02/17 03:03:10;;;;;;;;;;;;;;;;;;5017906;28;19932;-51
2024/02/17 03:05:36;;;;;;;;;;;;;;;;;;5016005;28;19924;-48
2024/02/17 03:08:03;;;;;;;;;;;;;;;;;;5017300;28;19909;-47
2024/02/17 03:10:29;;;;;;;;;;;;;;;;;;5020393;28;19905;-44
2024/02/17 03:12:55;;;;;;;;;;;;;;;;;;5026566;28;20263;-55
2024/02/17 03:15:21;;;;;;;;;;;;;;;;;;5027023;28;19977;-46
2024/02/17 03:17:48;;;;;;;;;;;;;;;;;;5026967;28;19916;-58
2024/02/17 03:20:14;;;;;;;;;;;;;;;;;;5026844;28;19901;-56
2024/02/17 03:22:41;;;;;;;;;;;;;;;;;;5022928;28;20078;-56
2024/02/17 03:25:07;;;;;;;;;;;;;;;;;;5026712;28;19908;-46
2024/02/17 03:27:34;;;;;;;;;;;;;;;;;;5026941;28;20026;-44
2024/02/17 03:30:04;;;;;;;;;;;;;;;;;;5026893;28;19928;-51
2024/02/17 03:32:31;;;;;;;;;;;;;;;;;;5026598;28;19902;-58
2024/02/17 03:34:57;;;;;;;;;;;;;;;;;;5026816;28;19909;-46
2024/02/17 03:37:25;;;;;;;;;;;;;;;;;;5026541;28;19901;-49
2024/02/17 03:39:51;;;;;;;;;;;;;;;;;;5026485;28;20000;-45
2024/02/17 03:42:17;;;;;;;;;;;;;;;;;;5026665;28;19901;-48
2024/02/17 03:44:43;;;;;;;;;;;;;;;;;;5026603;28;19924;-53
2024/02/17 03:47:11;;;;;;;;;;;;;;;;;;5026320;28;19902;-47
2024/02/17 03:49:37;;;;;;;;;;;;;;;;;;5026891;28;20096;-43
2024/02/17 03:52:03;;;;;;;;;;;;;;;;;;5025770;28;20212;-51
2024/02/17 03:54:29;;;;;;;;;;;;;;;;;;5026602;28;19910;-57
2024/02/17 03:56:55;;;;;;;;;;;;;;;;;;5026095;28;19902;-53
2024/02/17 03:59:22;;;;;;;;;;;;;;;;;;5026757;28;19910;-51
2024/02/17 04:01:55;;;;;;;;;;;;;;;;;;5026075;28;19936;-46
2024/02/17 04:04:21;;;;;;;;;;;;;;;;;;5026058;28;19971;-51
2024/02/17 04:06:47;;;;;;;;;;;;;;;;;;5026024;28;19901;-47
2024/02/17 04:09:13;;;;;;;;;;;;;;;;;;5026261;28;19910;-52
2024/02/17 04:11:40;;;;;;;;;;;;;;;;;;5025863;28;20221;-50
2024/02/17 04:14:06;;;;;;;;;;;;;;;;;;5026257;28;19917;-56
2024/02/17 04:16:32;;;;;;;;;;;;;;;;;;5025929;28;20256;-45
2024/02/17 04:18:58;;;;;;;;;;;;;;;;;;5026131;28;19909;-54
2024/02/17 04:21:24;;;;;;;;;;;;;;;;;;5026344;28;19901;-47
2024/02/17 04:23:51;;;;;;;;;;;;;;;;;;5026382;28;19909;-51
2024/02/17 04:26:17;;;;;;;;;;;;;;;;;;5024796;28;19948;-47
2024/02/17 04:28:43;;;;;;;;;;;;;;;;;;5025508;28;19939;-50
2024/02/17 04:31:09;;;;;;;;;;;;;;;;;;5025710;28;19923;-46
2024/02/17 04:33:39;;;;;;;;;;;;;;;;;;5025739;28;19960;-51
2024/02/17 04:36:05;;;;;;;;;;;;;;;;;;5025444;28;20211;-50
2024/02/17 04:38:31;;;;;;;;;;;;;;;;;;5025711;28;20093;-51
2024/02/17 04:40:57;;;;;;;;;;;;;;;;;;5025859;28;19901;-48
2024/02/17 04:43:23;;;;;;;;;;;;;;;;;;5025929;28;20134;-47
2024/02/17 04:45:50;;;;;;;;;;;;;;;;;;5025575;28;19901;-47
2024/02/17 04:48:16;;;;;;;;;;;;;;;;;;5025708;28;19933;-51
2024/02/17 04:50:42;;;;;;;;;;;;;;;;;;5025843;28;19907;-50
2024/02/17 04:53:08;;;;;;;;;;;;;;;;;;5025745;28;20023;-49
2024/02/17 04:55:34;;;;;;;;;;;;;;;;;;5025081;28;19905;-52
2024/02/17 04:58:00;;;;;;;;;;;;;;;;;;5025382;28;19917;-44
2024/02/17 05:00:27;;;;;;;;;;;;;;;;;;5025327;28;19960;-45
2024/02/17 05:02:53;;;;;;;;;;;;;;;;;;5025427;28;19916;-48
2024/02/17 05:05:19;;;;;;;;;;;;;;;;;;5024999;28;19952;-52
2024/02/17 05:07:45;;;;;;;;;;;;;;;;;;5024041;28;19909;-52
2024/02/17 05:10:12;;;;;;;;;;;;;;;;;;5025287;28;19908;-46
2024/02/17 05:12:38;;;;;;;;;;;;;;;;;;5024819;28;20008;-49
2024/02/17 05:15:04;;;;;;;;;;;;;;;;;;5025369;28;19944;-47
2024/02/17 05:17:30;;;;;;;;;;;;;;;;;;5025253;28;20101;-47
2024/02/17 05:19:56;;;;;;;;;;;;;;;;;;5024944;28;19907;-50
2024/02/17 05:22:23;;;;;;;;;;;;;;;;;;5024800;28;19902;-49
2024/02/17 05:24:50;;;;;;;;;;;;;;;;;;5024805;28;20101;-48
2024/02/17 05:27:16;;;;;;;;;;;;;;;;;;5024524;28;19902;-52
2024/02/17 05:29:42;;;;;;;;;;;;;;;;;;5025009;28;19947;-55
2024/02/17 05:32:09;;;;;;;;;;;;;;;;;;5024753;28;19901;-48
2024/02/17 05:34:35;;;;;;;;;;;;;;;;;;5025069;28;19910;-49
2024/02/17 05:37:01;;;;;;;;;;;;;;;;;;5024842;28;19901;-52
2024/02/17 05:39:27;;;;;;;;;;;;;;;;;;5024981;28;19911;-54
2024/02/17 05:41:53;;;;;;;;;;;;;;;;;;5024643;28;20012;-51
2024/02/17 05:44:20;;;;;;;;;;;;;;;;;;5024774;28;19917;-52
2024/02/17 05:46:46;;;;;;;;;;;;;;;;;;5024597;28;20244;-47
2024/02/17 05:49:12;;;;;;;;;;;;;;;;;;5024774;28;19947;-49
2024/02/17 05:51:39;;;;;;;;;;;;;;;;;;5024461;28;19933;-52
2024/02/17 05:54:05;;;;;;;;;;;;;;;;;;5025029;28;19980;-53
2024/02/17 05:56:32;;;;;;;;;;;;;;;;;;5024526;28;19910;-54
2024/02/17 05:58:58;;;;;;;;;;;;;;;;;;5024391;28;19980;-48
2024/02/17 06:01:24;;;;;;;;;;;;;;;;;;5024499;28;19912;-52
2024/02/17 06:03:50;;;;;;;;;;;;;;;;;;5007045;28;20075;-52
2024/02/17 06:06:16;;;;;;;;;;;;;;;;;;5024571;28;19939;-48
2024/02/17 06:08:42;;;;;;;;;;;;;;;;;;5024938;28;19916;-52
2024/02/17 06:11:09;;;;;;;;;;;;;;;;;;5024269;28;19932;-48
2024/02/17 06:13:35;;;;;;;;;;;;;;;;;;5024424;28;19932;-52
2024/02/17 06:16:03;;;;;;;;;;;;;;;;;;5024145;28;19912;-45
2024/02/17 06:21:14;;;;;;;;;;;;;;;;;;5027407;28;19956;-54
2024/02/17 06:23:40;;;;;;;;;;;;;;;;;;5028246;28;19910;-54
2024/02/17 06:26:07;;;;;;;;;;;;;;;;;;5027804;28;19933;-45
2024/02/17 06:28:33;;;;;;;;;;;;;;;;;;5027750;28;19920;-50
2024/02/17 06:30:59;;;;;;;;;;;;;;;;;;5028143;28;19901;-52
2024/02/17 06:33:31;;;;;;;;;;;;;;;;;;5028034;28;20201;-46
2024/02/17 06:35:57;;;;;;;;;;;;;;;;;;5028129;28;20139;-52
2024/02/17 06:38:23;;;;;;;;;;;;;;;;;;5028129;28;19980;-47
2024/02/17 06:40:49;;;;;;;;;;;;;;;;;;5028105;28;19943;-49
2024/02/17 06:43:17;;;;;;;;;;;;;;;;;;5027968;28;19917;-52
2024/02/17 06:45:43;;;;;;;;;;;;;;;;;;5027569;28;19901;-51
2024/02/17 06:48:11;;;;;;;;;;;;;;;;;;5027715;28;19952;-51
2024/02/17 06:50:37;;;;;;;;;;;;;;;;;;5027830;28;19909;-51
2024/02/17 06:53:03;;;;;;;;;;;;;;;;;;5028039;28;19932;-50
2024/02/17 06:55:29;;;;;;;;;;;;;;;;;;5027782;28;19963;-51
2024/02/17 06:57:56;;;;;;;;;;;;;;;;;;5027629;28;19909;-52
2024/02/17 07:00:23;;;;;;;;;;;;;;;;;;5027595;28;19901;-47
2024/02/17 07:02:49;;;;;;;;;;;;;;;;;;5027263;28;19948;-52
2024/02/17 07:05:16;;;;;;;;;;;;;;;;;;5026975;28;19914;-54
2024/02/17 07:07:43;;;;;;;;;;;;;;;;;;5027244;28;19917;-51
2024/02/17 07:10:09;;;;;;;;;;;;;;;;;;5027172;28;20097;-53
2024/02/17 07:12:35;;;;;;;;;;;;;;;;;;5026986;28;19909;-53
2024/02/17 07:15:01;;;;;;;;;;;;;;;;;;5027196;28;19905;-52
2024/02/17 07:17:27;;;;;;;;;;;;;;;;;;5027016;28;19909;-53
2024/02/17 07:19:53;;;;;;;;;;;;;;;;;;5027135;28;20078;-52
2024/02/17 07:22:20;;;;;;;;;;;;;;;;;;5026975;28;19901;-50
2024/02/17 07:24:48;;;;;;;;;;;;;;;;;;5026830;28;19948;-53
2024/02/17 07:27:15;;;;;;;;;;;;;;;;;;5026605;28;19901;-52
2024/02/17 07:29:42;;;;;;;;;;;;;;;;;;5026722;28;20148;-53
2024/02/17 07:32:08;;;;;;;;;;;;;;;;;;5026247;28;19972;-52
2024/02/17 07:34:34;;;;;;;;;;;;;;;;;;5026967;28;19916;-51
2024/02/17 07:37:02;;;;;;;;;;;;;;;;;;5026629;28;20133;-53
2024/02/17 07:39:29;;;;;;;;;;;;;;;;;;5027033;28;19909;-51
2024/02/17 07:41:55;;;;;;;;;;;;;;;;;;5026388;28;20248;-52
2024/02/17 07:44:23;;;;;;;;;;;;;;;;;;5026985;28;19976;-55
2024/02/17 07:46:50;;;;;;;;;;;;;;;;;;5026410;28;20196;-54
2024/02/17 07:49:19;;;;;;;;;;;;;;;;;;5026980;28;19910;-52
2024/02/17 07:51:45;;;;;;;;;;;;;;;;;;5025952;28;20105;-51
2024/02/17 07:54:11;;;;;;;;;;;;;;;;;;5026652;28;19951;-53
2024/02/17 07:56:38;;;;;;;;;;;;;;;;;;5026145;28;19912;-54
2024/02/17 07:59:04;;;;;;;;;;;;;;;;;;5026594;28;20186;-53
2024/02/17 08:01:30;;;;;;;;;;;;;;;;;;5026328;28;19901;-53
2024/02/17 08:03:56;;;;;;;;;;;;;;;;;;5026007;28;20202;-56
2024/02/17 08:06:23;;;;;;;;;;;;;;;;;;5026065;28;20238;-53
2024/02/17 08:08:49;;;;;;;;;;;;;;;;;;5026519;28;19916;-49
2024/02/17 08:11:15;;;;;;;;;;;;;;;;;;5025922;28;19905;-51
2024/02/17 08:13:41;;;;;;;;;;;;;;;;;;5025724;28;19910;-57
2024/02/17 08:16:07;;;;;;;;;;;;;;;;;;5025841;28;20132;-57
2024/02/17 08:18:34;;;;;;;;;;;;;;;;;;5026144;28;19913;-52
2024/02/17 08:21:02;;;;;;;;;;;;;;;;;;5025671;28;19901;-47
2024/02/17 08:23:28;;;;;;;;;;;;;;;;;;5025993;28;19932;-46
2024/02/17 08:25:54;;;;;;;;;;;;;;;;;;5025883;28;19924;-44
2024/02/17 08:28:20;;;;;;;;;;;;;;;;;;5024532;28;20120;-44
2024/02/17 08:30:49;;;;;;;;;;;;;;;;;;5025760;28;19901;-52
2024/02/17 08:33:15;;;;;;;;;;;;;;;;;;5025763;28;19909;-47
2024/02/17 08:35:42;;;;;;;;;;;;;;;;;;5025408;28;20193;-43
2024/02/17 08:38:08;;;;;;;;;;;;;;;;;;5025626;28;19976;-47
2024/02/17 08:40:34;;;;;;;;;;;;;;;;;;5025550;28;19907;-44
2024/02/17 08:43:01;;;;;;;;;;;;;;;;;;5024580;28;20063;-46
2024/02/17 08:45:27;;;;;;;;;;;;;;;;;;5025818;28;19901;-46
2024/02/17 08:47:54;;;;;;;;;;;;;;;;;;5025372;28;19917;-45
2024/02/17 08:50:20;;;;;;;;;;;;;;;;;;5025415;28;19909;-43
2024/02/17 08:52:46;;;;;;;;;;;;;;;;;;5025275;28;20185;-51
2024/02/17 08:55:12;;;;;;;;;;;;;;;;;;5025471;28;19909;-43
2024/02/17 08:57:39;;;;;;;;;;;;;;;;;;5024962;28;19951;-43
2024/02/17 09:00:05;;;;;;;;;;;;;;;;;;5025329;28;19909;-45
2024/02/17 09:02:31;;;;;;;;;;;;;;;;;;5025079;28;20189;-50
2024/02/17 09:04:57;;;;;;;;;;;;;;;;;;5024872;28;19913;-45
2024/02/17 09:07:23;;;;;;;;;;;;;;;;;;5024847;28;20170;-45
2024/02/17 09:09:50;;;;;;;;;;;;;;;;;;5024916;28;19929;-45
2024/02/17 09:12:16;;;;;;;;;;;;;;;;;;5024962;28;20021;-46
2024/02/17 09:14:42;;;;;;;;;;;;;;;;;;5024709;28;19901;-49
2024/02/17 09:17:08;;;;;;;;;;;;;;;;;;5024852;28;19939;-47
2024/02/17 09:19:34;;;;;;;;;;;;;;;;;;5025247;28;19909;-49
2024/02/17 09:22:01;;;;;;;;;;;;;;;;;;5024641;28;19964;-49
2024/02/17 09:24:27;;;;;;;;;;;;;;;;;;5025173;28;20194;-43
2024/02/17 09:26:55;;;;;;;;;;;;;;;;;;5024709;28;19972;-48
2024/02/17 09:29:21;;;;;;;;;;;;;;;;;;5024921;28;20181;-43
2024/02/17 09:31:48;;;;;;;;;;;;;;;;;;5024736;28;20264;-45
2024/02/17 09:34:14;;;;;;;;;;;;;;;;;;5025003;28;19976;-43
2024/02/17 09:36:40;;;;;;;;;;;;;;;;;;5024411;28;19911;-52
2024/02/17 09:39:06;;;;;;;;;;;;;;;;;;5024904;28;19972;-51
2024/02/17 09:41:33;;;;;;;;;;;;;;;;;;5024520;28;20194;-52
2024/02/17 09:43:59;;;;;;;;;;;;;;;;;;5024226;28;19913;-53
2024/02/17 09:46:25;;;;;;;;;;;;;;;;;;5024589;28;19940;-56
2024/02/17 09:48:51;;;;;;;;;;;;;;;;;;5024883;28;19905;-53
2024/02/17 09:51:19;;;;;;;;;;;;;;;;;;5024440;28;19920;-52
2024/02/17 09:53:45;;;;;;;;;;;;;;;;;;5025616;28;19968;-60
2024/02/17 09:56:11;;;;;;;;;;;;;;;;;;5028471;28;20213;-47
2024/02/17 09:58:38;;;;;;;;;;;;;;;;;;5028889;28;19912;-45
2024/02/17 10:01:04;;;;;;;;;;;;;;;;;;5028326;28;20232;-49
2024/02/17 10:03:30;;;;;;;;;;;;;;;;;;5028278;28;19905;-50
2024/02/17 10:05:56;;;;;;;;;;;;;;;;;;5028316;28;20186;-49
2024/02/17 10:08:22;;;;;;;;;;;;;;;;;;5028417;28;19954;-44
2024/02/17 10:10:49;;;;;;;;;;;;;;;;;;5028208;28;19908;-47
2024/02/17 10:13:16;;;;;;;;;;;;;;;;;;5028305;28;19909;-44
2024/02/17 10:15:43;;;;;;;;;;;;;;;;;;5028002;28;19909;-46
2024/02/17 10:18:09;;;;;;;;;;;;;;;;;;5028409;28;19913;-46
2024/02/17 10:20:35;;;;;;;;;;;;;;;;;;5028115;28;19969;-45
2024/02/17 10:23:02;;;;;;;;;;;;;;;;;;5027982;28;19909;-48
2024/02/17 10:25:28;;;;;;;;;;;;;;;;;;5028172;28;19932;-50
2024/02/17 10:27:54;;;;;;;;;;;;;;;;;;5027808;28;19916;-48
2024/02/17 10:30:20;;;;;;;;;;;;;;;;;;5027808;28;19901;-44
2024/02/17 10:32:47;;;;;;;;;;;;;;;;;;5027873;28;19909;-45
2024/02/17 10:35:14;;;;;;;;;;;;;;;;;;5027798;28;20193;-49
2024/02/17 10:37:40;;;;;;;;;;;;;;;;;;5027600;28;19909;-53
2024/02/17 10:40:07;;;;;;;;;;;;;;;;;;5027664;28;19944;-52
2024/02/17 10:42:33;;;;;;;;;;;;;;;;;;5027589;28;19984;-54
2024/02/17 10:45:05;;;;;;;;;;;;;;;;;;5027669;28;19968;-55
2024/02/17 10:47:36;;;;;;;;;;;;;;;;;;5027566;28;19901;-54
2024/02/17 10:50:03;;;;;;;;;;;;;;;;;;5027494;28;19902;-53
2024/02/17 10:52:29;;;;;;;;;;;;;;;;;;5027219;28;20209;-54
2024/02/17 10:54:57;;;;;;;;;;;;;;;;;;5027584;28;19913;-53
2024/02/17 10:57:24;;;;;;;;;;;;;;;;;;5027335;28;20094;-46
2024/02/17 10:59:51;;;;;;;;;;;;;;;;;;5027161;28;19925;-45
2024/02/17 11:02:17;;;;;;;;;;;;;;;;;;5027439;28;19901;-47
2024/02/17 11:04:43;;;;;;;;;;;;;;;;;;5026873;28;19913;-53
2024/02/17 11:07:10;;;;;;;;;;;;;;;;;;5026517;28;19908;-53
2024/02/17 11:09:37;;;;;;;;;;;;;;;;;;5027650;28;19944;-53
2024/02/17 11:12:03;;;;;;;;;;;;;;;;;;5027367;28;20145;-53
2024/02/17 11:14:29;;;;;;;;;;;;;;;;;;5027440;28;19976;-52
2024/02/17 11:16:55;;;;;;;;;;;;;;;;;;5027085;28;19913;-55
2024/02/17 11:19:21;;;;;;;;;;;;;;;;;;5027497;28;19909;-56
2024/02/17 11:21:47;;;;;;;;;;;;;;;;;;5026943;28;19901;-54
2024/02/17 11:24:14;;;;;;;;;;;;;;;;;;5027281;28;19913;-56
2024/02/17 11:26:40;;;;;;;;;;;;;;;;;;5026859;28;19975;-58
2024/02/17 11:29:06;;;;;;;;;;;;;;;;;;5027583;28;19909;-54
2024/02/17 11:31:33;;;;;;;;;;;;;;;;;;5027543;28;20051;-50
2024/02/17 11:33:59;;;;;;;;;;;;;;;;;;5027161;28;19916;-49
2024/02/17 11:36:25;;;;;;;;;;;;;;;;;;5027300;28;20089;-45
2024/02/17 11:38:51;;;;;;;;;;;;;;;;;;5026986;28;19916;-43
2024/02/17 11:41:18;;;;;;;;;;;;;;;;;;5026702;28;19908;-42
2024/02/17 11:43:44;;;;;;;;;;;;;;;;;;5026785;28;20178;-45
2024/02/17 11:46:13;;;;;;;;;;;;;;;;;;5026597;28;19902;-45
2024/02/17 11:48:39;;;;;;;;;;;;;;;;;;5027400;28;19913;-50
2024/02/17 11:51:05;;;;;;;;;;;;;;;;;;5026417;28;20365;-54
2024/02/17 11:53:31;;;;;;;;;;;;;;;;;;5026472;28;19909;-42
2024/02/17 11:56:01;;;;;;;;;;;;;;;;;;5026382;28;19905;-46
2024/02/17 11:58:27;;;;;;;;;;;;;;;;;;5026589;28;20189;-52
2024/02/17 12:00:53;;;;;;;;;;;;;;;;;;5026155;28;19909;-42
2024/02/17 12:03:19;;;;;;;;;;;;;;;;;;5026168;28;19941;-46
2024/02/17 12:05:45;;;;;;;;;;;;;;;;;;5026779;28;19905;-48
2024/02/17 12:08:13;;;;;;;;;;;;;;;;;;5026544;28;20075;-45
2024/02/17 12:10:39;;;;;;;;;;;;;;;;;;5026418;28;19901;-42
2024/02/17 12:13:06;;;;;;;;;;;;;;;;;;5026120;28;20137;-44
2024/02/17 12:15:32;;;;;;;;;;;;;;;;;;5025872;28;19972;-50
2024/02/17 12:17:58;;;;;;;;;;;;;;;;;;5026288;28;19909;-46
2024/02/17 12:20:24;;;;;;;;;;;;;;;;;;5026111;28;19909;-45
2024/02/17 12:22:50;;;;;;;;;;;;;;;;;;5025986;28;20072;-45
2024/02/17 12:25:17;;;;;;;;;;;;;;;;;;5007199;28;19906;-45
2024/02/17 12:27:43;;;;;;;;;;;;;;;;;;5006296;28;19910;-57
2024/02/17 12:30:09;;;;;;;;;;;;;;;;;;5005896;28;19948;-54
2024/02/17 12:32:35;;;;;;;;;;;;;;;;;;5006098;28;19910;-53
2024/02/17 12:35:02;;;;;;;;;;;;;;;;;;5005886;28;19945;-58
2024/02/17 12:37:28;;;;;;;;;;;;;;;;;;5005878;28;19910;-56
2024/02/17 12:39:54;;;;;;;;;;;;;;;;;;5009801;28;19912;-57
2024/02/17 12:42:20;;;;;;;;;;;;;;;;;;5025381;28;20129;-50
2024/02/17 12:44:46;;;;;;;;;;;;;;;;;;5025242;28;19951;-49
2024/02/17 12:47:13;;;;;;;;;;;;;;;;;;5025263;28;19901;-48
2024/02/17 12:49:40;;;;;;;;;;;;;;;;;;5025327;28;19917;-45
2024/02/17 12:52:06;;;;;;;;;;;;;;;;;;5025310;28;19897;-51
2024/02/17 12:54:32;;;;;;;;;;;;;;;;;;5025833;28;19910;-45
2024/02/17 12:56:59;;;;;;;;;;;;;;;;;;5025181;28;20016;-53
2024/02/17 12:59:25;;;;;;;;;;;;;;;;;;5025172;28;19909;-54
2024/02/17 13:01:51;;;;;;;;;;;;;;;;;;5025163;28;19902;-60
2024/02/17 13:04:18;;;;;;;;;;;;;;;;;;5025239;28;19917;-56
2024/02/17 13:06:44;;;;;;;;;;;;;;;;;;5025008;28;19968;-56
2024/02/17 13:09:10;;;;;;;;;;;;;;;;;;5025371;28;20093;-53
2024/02/17 13:11:36;;;;;;;;;;;;;;;;;;5025307;28;19914;-52
2024/02/17 13:14:02;;;;;;;;;;;;;;;;;;5025312;28;20178;-45
2024/02/17 13:16:29;;;;;;;;;;;;;;;;;;5024760;28;19905;-50
2024/02/17 13:18:56;;;;;;;;;;;;;;;;;;5025024;28;19917;-51
2024/02/17 13:21:23;;;;;;;;;;;;;;;;;;5024764;28;19908;-57
2024/02/17 13:23:49;;;;;;;;;;;;;;;;;;5024502;28;20181;-47
2024/02/17 13:26:15;;;;;;;;;;;;;;;;;;5024659;28;19976;-45
2024/02/17 13:28:41;;;;;;;;;;;;;;;;;;5024651;28;19916;-48
2024/02/17 13:31:07;;;;;;;;;;;;;;;;;;5024822;28;20185;-51
2024/02/17 13:33:34;;;;;;;;;;;;;;;;;;5024803;28;19913;-46
2024/02/17 13:36:01;;;;;;;;;;;;;;;;;;5024452;28;19906;-47
2024/02/17 13:38:27;;;;;;;;;;;;;;;;;;5024894;28;20089;-49
2024/02/17 13:40:53;;;;;;;;;;;;;;;;;;5024595;28;19973;-51
2024/02/17 13:43:19;;;;;;;;;;;;;;;;;;5024475;28;19952;-50
2024/02/17 13:45:46;;;;;;;;;;;;;;;;;;5024422;28;19908;-51
2024/02/17 13:48:12;;;;;;;;;;;;;;;;;;5024534;28;19984;-51
2024/02/17 13:50:38;;;;;;;;;;;;;;;;;;5024560;28;19929;-50
2024/02/17 13:53:05;;;;;;;;;;;;;;;;;;5024825;28;19905;-46
2024/02/17 13:55:32;;;;;;;;;;;;;;;;;;5024190;28;20110;-48
2024/02/17 13:57:59;;;;;;;;;;;;;;;;;;5024469;28;19906;-50
2024/02/17 14:00:25;;;;;;;;;;;;;;;;;;5024689;28;19905;-44
2024/02/17 14:02:51;;;;;;;;;;;;;;;;;;5024359;28;20112;-49
2024/02/17 14:05:17;;;;;;;;;;;;;;;;;;5024202;28;19921;-49
2024/02/17 14:07:43;;;;;;;;;;;;;;;;;;5024412;28;19910;-52
2024/02/17 14:10:10;;;;;;;;;;;;;;;;;;5024327;28;20261;-50
2024/02/17 14:12:36;;;;;;;;;;;;;;;;;;5024100;28;19963;-48
2024/02/17 14:15:02;;;;;;;;;;;;;;;;;;5024294;28;19905;-49
2024/02/17 14:17:29;;;;;;;;;;;;;;;;;;5024017;28;19931;-50
2024/02/17 14:19:56;;;;;;;;;;;;;;;;;;5024099;28;19901;-46
2024/02/17 14:22:23;;;;;;;;;;;;;;;;;;5024282;28;19904;-53
2024/02/17 14:24:49;;;;;;;;;;;;;;;;;;5024415;28;20039;-51
2024/02/17 14:27:15;;;;;;;;;;;;;;;;;;5024350;28;19929;-50
2024/02/17 14:29:48;;;;;;;;;;;;;;;;;;5024334;28;19939;-53
2024/02/17 14:32:14;;;;;;;;;;;;;;;;;;5024118;28;19917;-52
2024/02/17 14:34:40;;;;;;;;;;;;;;;;;;5024156;28;20128;-48
2024/02/17 14:37:06;;;;;;;;;;;;;;;;;;5024064;28;19951;-53
2024/02/17 14:39:34;;;;;;;;;;;;;;;;;;5024706;28;19909;-50
2024/02/17 14:42:00;;;;;;;;;;;;;;;;;;5026659;28;19909;-51
2024/02/17 14:44:27;;;;;;;;;;;;;;;;;;5028480;28;20181;-45
2024/02/17 14:46:53;;;;;;;;;;;;;;;;;;5027707;28;19909;-52
2024/02/17 14:49:19;;;;;;;;;;;;;;;;;;5028001;28;20189;-46
2024/02/17 14:51:47;;;;;;;;;;;;;;;;;;5027770;28;19901;-47
2024/02/17 14:54:14;;;;;;;;;;;;;;;;;;5027968;28;19987;-53
2024/02/17 14:56:40;;;;;;;;;;;;;;;;;;5027568;28;19936;-46
2024/02/17 14:59:06;;;;;;;;;;;;;;;;;;5028032;28;20189;-48
2024/02/17 15:01:32;;;;;;;;;;;;;;;;;;5027356;28;19940;-51
2024/02/17 15:03:58;;;;;;;;;;;;;;;;;;5027347;28;20201;-50
2024/02/17 15:06:25;;;;;;;;;;;;;;;;;;5027565;28;19909;-50
2024/02/17 15:08:51;;;;;;;;;;;;;;;;;;5027575;28;19916;-46
2024/02/17 15:11:17;;;;;;;;;;;;;;;;;;5027167;28;19901;-51
2024/02/17 15:13:45;;;;;;;;;;;;;;;;;;5009919;28;19921;-49
2024/02/17 15:16:12;;;;;;;;;;;;;;;;;;5009132;28;19933;-49
2024/02/17 15:18:38;;;;;;;;;;;;;;;;;;5016700;28;19909;-53
2024/02/17 15:21:04;;;;;;;;;;;;;;;;;;5027075;28;20213;-52
2024/02/17 15:23:31;;;;;;;;;;;;;;;;;;5026541;28;19915;-51
2024/02/17 15:25:57;;;;;;;;;;;;;;;;;;5026783;28;19902;-47
2024/02/17 15:28:23;;;;;;;;;;;;;;;;;;5025914;28;19916;-43
2024/02/17 15:30:50;;;;;;;;;;;;;;;;;;5026429;28;19976;-52
2024/02/17 15:33:16;;;;;;;;;;;;;;;;;;5026826;28;19909;-52
2024/02/17 15:35:43;;;;;;;;;;;;;;;;;;5026455;28;19933;-47
2024/02/17 15:38:09;;;;;;;;;;;;;;;;;;5026769;28;19909;-53
2024/02/17 15:40:35;;;;;;;;;;;;;;;;;;5026455;28;19902;-51
2024/02/17 15:43:02;;;;;;;;;;;;;;;;;;5025936;28;20178;-48
2024/02/17 15:45:28;;;;;;;;;;;;;;;;;;5026542;28;19902;-50
2024/02/17 15:47:57;;;;;;;;;;;;;;;;;;5026687;28;19909;-49
2024/02/17 15:50:23;;;;;;;;;;;;;;;;;;5026393;28;19909;-51
2024/02/17 15:52:50;;;;;;;;;;;;;;;;;;5026272;28;20062;-51
2024/02/17 15:55:16;;;;;;;;;;;;;;;;;;5026286;28;20005;-55
2024/02/17 15:57:42;;;;;;;;;;;;;;;;;;5026280;28;20201;-53
2024/02/17 16:00:11;;;;;;;;;;;;;;;;;;5026274;28;19931;-50
2024/02/17 16:02:37;;;;;;;;;;;;;;;;;;5026299;28;20284;-50
2024/02/17 16:05:03;;;;;;;;;;;;;;;;;;5025959;28;19936;-52
2024/02/17 16:07:32;;;;;;;;;;;;;;;;;;5026177;28;19905;-54
2024/02/17 16:09:58;;;;;;;;;;;;;;;;;;5026035;28;19901;-49
2024/02/17 16:12:26;;;;;;;;;;;;;;;;;;5025849;28;19908;-51
2024/02/17 16:14:52;;;;;;;;;;;;;;;;;;5025902;28;19902;-48
2024/02/17 16:17:19;;;;;;;;;;;;;;;;;;5023332;28;20058;-53
2024/02/17 16:19:45;;;;;;;;;;;;;;;;;;5021294;28;19905;-56
2024/02/17 16:22:11;;;;;;;;;;;;;;;;;;5025660;28;20194;-52
2024/02/17 16:24:43;;;;;;;;;;;;;;;;;;5026381;28;19905;-54
2024/02/17 16:27:09;;;;;;;;;;;;;;;;;;5025885;28;20148;-54
2024/02/17 16:29:35;;;;;;;;;;;;;;;;;;5026131;28;19905;-51
2024/02/17 16:32:02;;;;;;;;;;;;;;;;;;5025683;28;19905;-50
2024/02/17 16:34:28;;;;;;;;;;;;;;;;;;5025930;28;19968;-52
2024/02/17 16:36:54;;;;;;;;;;;;;;;;;;5025639;28;19909;-52
2024/02/17 16:39:20;;;;;;;;;;;;;;;;;;5025979;28;19913;-49
2024/02/17 16:41:52;;;;;;;;;;;;;;;;;;5025491;28;20133;-48